sensor_id;sensor_type;location;lat;lon;timestamp;P1;durP1;ratioP1;P2;durP2;ratioP2
37431;SDS011;23292;51.300;6.252;2022-12-13T00:00:56;55.10;;;21.85;;
37431;SDS011;23292;51.300;6.252;2022-12-13T00:03:22;51.55;;;20.95;;
37431;SDS011;23292;51.300;6.252;2022-12-13T00:05:49;58.53;;;21.95;;
37431;SDS011;23292;51.300;6.252;2022-12-13T00:08:16;52.38;;;21.20;;
37431;SDS011;23292;51.300;6.252;2022-12-13T00:10:43;58.38;;;21.33;;
37431;SDS011;23292;51.300;6.252;2022-12-13T00:13:09;56.85;;;22.25;;
37431;SDS011;23292;51.300;6.252;2022-12-13T00:15:36;53.28;;;21.83;;
37431;SDS011;23292;51.300;6.252;2022-12-13T00:18:03;52.85;;;22.60;;
37431;SDS011;23292;51.300;6.252;2022-12-13T00:20:29;52.30;;;22.10;;
37431;SDS011;23292;51.300;6.252;2022-12-13T00:22:56;55.08;;;23.63;;
37431;SDS011;23292;51.300;6.252;2022-12-13T00:25:23;52.60;;;21.42;;
37431;SDS011;23292;51.300;6.252;2022-12-13T00:27:49;61.92;;;23.20;;
37431;SDS011;23292;51.300;6.252;2022-12-13T00:30:16;59.08;;;23.10;;
37431;SDS011;23292;51.300;6.252;2022-12-13T00:32:43;50.47;;;20.95;;
37431;SDS011;23292;51.300;6.252;2022-12-13T00:35:09;53.00;;;20.80;;
37431;SDS011;23292;51.300;6.252;2022-12-13T00:37:36;63.20;;;23.35;;
37431;SDS011;23292;51.300;6.252;2022-12-13T00:40:03;60.00;;;22.95;;
37431;SDS011;23292;51.300;6.252;2022-12-13T00:42:30;57.45;;;21.80;;
37431;SDS011;23292;51.300;6.252;2022-12-13T00:44:57;59.15;;;23.38;;
37431;SDS011;23292;51.300;6.252;2022-12-13T00:47:24;55.30;;;22.58;;
37431;SDS011;23292;51.300;6.252;2022-12-13T00:49:50;52.55;;;21.02;;
37431;SDS011;23292;51.300;6.252;2022-12-13T00:52:17;58.90;;;23.30;;
37431;SDS011;23292;51.300;6.252;2022-12-13T00:54:44;64.50;;;25.23;;
37431;SDS011;23292;51.300;6.252;2022-12-13T00:57:10;50.47;;;20.70;;
37431;SDS011;23292;51.300;6.252;2022-12-13T00:59:37;61.03;;;24.38;;
37431;SDS011;23292;51.300;6.252;2022-12-13T01:02:04;52.72;;;21.90;;
37431;SDS011;23292;51.300;6.252;2022-12-13T01:04:30;62.80;;;23.42;;
37431;SDS011;23292;51.300;6.252;2022-12-13T01:06:57;50.78;;;20.58;;
37431;SDS011;23292;51.300;6.252;2022-12-13T01:09:24;53.33;;;20.95;;
37431;SDS011;23292;51.300;6.252;2022-12-13T01:12:01;55.90;;;22.58;;
37431;SDS011;23292;51.300;6.252;2022-12-13T01:14:30;57.58;;;21.25;;
37431;SDS011;23292;51.300;6.252;2022-12-13T01:17:00;50.00;;;21.05;;
37431;SDS011;23292;51.300;6.252;2022-12-13T01:19:27;51.55;;;21.08;;
37431;SDS011;23292;51.300;6.252;2022-12-13T01:21:54;53.72;;;21.65;;
37431;SDS011;23292;51.300;6.252;2022-12-13T01:24:25;49.72;;;20.52;;
37431;SDS011;23292;51.300;6.252;2022-12-13T01:26:52;52.30;;;21.33;;
37431;SDS011;23292;51.300;6.252;2022-12-13T01:29:23;52.40;;;22.80;;
37431;SDS011;23292;51.300;6.252;2022-12-13T01:31:51;58.92;;;21.00;;
37431;SDS011;23292;51.300;6.252;2022-12-13T01:34:19;47.60;;;20.38;;
37431;SDS011;23292;51.300;6.252;2022-12-13T01:36:52;49.30;;;20.13;;
37431;SDS011;23292;51.300;6.252;2022-12-13T01:39:24;50.70;;;20.55;;
37431;SDS011;23292;51.300;6.252;2022-12-13T01:41:52;51.00;;;19.67;;
37431;SDS011;23292;51.300;6.252;2022-12-13T01:49:52;54.00;;;20.55;;
37431;SDS011;23292;51.300;6.252;2022-12-13T01:52:20;50.45;;;21.35;;
37431;SDS011;23292;51.300;6.252;2022-12-13T01:54:47;56.85;;;21.45;;
37431;SDS011;23292;51.300;6.252;2022-12-13T01:57:17;53.58;;;21.27;;
37431;SDS011;23292;51.300;6.252;2022-12-13T01:59:47;50.15;;;21.30;;
37431;SDS011;23292;51.300;6.252;2022-12-13T02:02:15;57.17;;;21.90;;
37431;SDS011;23292;51.300;6.252;2022-12-13T02:04:53;55.70;;;20.67;;
37431;SDS011;23292;51.300;6.252;2022-12-13T02:07:25;53.58;;;21.42;;
37431;SDS011;23292;51.300;6.252;2022-12-13T02:09:55;56.17;;;23.20;;
37431;SDS011;23292;51.300;6.252;2022-12-13T02:12:25;47.95;;;22.17;;
37431;SDS011;23292;51.300;6.252;2022-12-13T02:14:56;57.70;;;22.63;;
37431;SDS011;23292;51.300;6.252;2022-12-13T02:28:52;53.58;;;20.88;;
37431;SDS011;23292;51.300;6.252;2022-12-13T02:31:30;54.05;;;21.20;;
37431;SDS011;23292;51.300;6.252;2022-12-13T02:36:49;59.60;;;21.67;;
37431;SDS011;23292;51.300;6.252;2022-12-13T02:39:29;65.63;;;24.42;;
37431;SDS011;23292;51.300;6.252;2022-12-13T02:42:07;61.00;;;23.15;;
37431;SDS011;23292;51.300;6.252;2022-12-13T02:44:50;61.03;;;22.17;;
37431;SDS011;23292;51.300;6.252;2022-12-13T02:47:24;59.42;;;21.67;;
37431;SDS011;23292;51.300;6.252;2022-12-13T02:49:55;62.88;;;23.35;;
37431;SDS011;23292;51.300;6.252;2022-12-13T02:52:25;57.22;;;23.13;;
37431;SDS011;23292;51.300;6.252;2022-12-13T02:54:54;62.75;;;24.33;;
37431;SDS011;23292;51.300;6.252;2022-12-13T03:00:03;61.90;;;25.55;;
37431;SDS011;23292;51.300;6.252;2022-12-13T03:05:47;59.25;;;23.10;;
37431;SDS011;23292;51.300;6.252;2022-12-13T03:11:17;68.03;;;23.65;;
37431;SDS011;23292;51.300;6.252;2022-12-13T03:18:49;70.55;;;25.35;;
37431;SDS011;23292;51.300;6.252;2022-12-13T03:23:47;64.72;;;22.77;;
37431;SDS011;23292;51.300;6.252;2022-12-13T03:26:15;62.13;;;23.98;;
37431;SDS011;23292;51.300;6.252;2022-12-13T03:28:45;57.40;;;22.40;;
37431;SDS011;23292;51.300;6.252;2022-12-13T03:31:11;59.67;;;22.77;;
37431;SDS011;23292;51.300;6.252;2022-12-13T03:33:38;56.70;;;23.05;;
37431;SDS011;23292;51.300;6.252;2022-12-13T03:36:05;55.28;;;23.05;;
37431;SDS011;23292;51.300;6.252;2022-12-13T03:38:32;60.35;;;24.25;;
37431;SDS011;23292;51.300;6.252;2022-12-13T03:41:00;66.22;;;24.17;;
37431;SDS011;23292;51.300;6.252;2022-12-13T03:43:29;58.65;;;23.27;;
37431;SDS011;23292;51.300;6.252;2022-12-13T03:45:56;56.08;;;21.83;;
37431;SDS011;23292;51.300;6.252;2022-12-13T03:48:23;65.43;;;25.95;;
37431;SDS011;23292;51.300;6.252;2022-12-13T03:50:50;62.53;;;24.80;;
37431;SDS011;23292;51.300;6.252;2022-12-13T03:53:18;62.47;;;24.50;;
37431;SDS011;23292;51.300;6.252;2022-12-13T03:55:58;61.80;;;24.92;;
37431;SDS011;23292;51.300;6.252;2022-12-13T03:58:26;59.67;;;24.48;;
37431;SDS011;23292;51.300;6.252;2022-12-13T04:01:02;59.97;;;24.33;;
37431;SDS011;23292;51.300;6.252;2022-12-13T04:03:30;64.65;;;24.25;;
37431;SDS011;23292;51.300;6.252;2022-12-13T04:05:58;62.65;;;26.48;;
37431;SDS011;23292;51.300;6.252;2022-12-13T04:08:24;59.47;;;23.67;;
37431;SDS011;23292;51.300;6.252;2022-12-13T04:10:51;58.13;;;22.80;;
37431;SDS011;23292;51.300;6.252;2022-12-13T04:13:18;57.63;;;23.85;;
37431;SDS011;23292;51.300;6.252;2022-12-13T04:16:00;63.15;;;24.98;;
37431;SDS011;23292;51.300;6.252;2022-12-13T04:18:27;58.10;;;24.55;;
37431;SDS011;23292;51.300;6.252;2022-12-13T04:20:54;61.00;;;25.25;;
37431;SDS011;23292;51.300;6.252;2022-12-13T04:23:22;57.53;;;23.67;;
37431;SDS011;23292;51.300;6.252;2022-12-13T04:25:49;59.58;;;24.50;;
37431;SDS011;23292;51.300;6.252;2022-12-13T04:28:16;61.28;;;25.77;;
37431;SDS011;23292;51.300;6.252;2022-12-13T04:33:19;75.13;;;28.02;;
37431;SDS011;23292;51.300;6.252;2022-12-13T04:35:47;69.20;;;26.55;;
37431;SDS011;23292;51.300;6.252;2022-12-13T04:38:14;66.32;;;24.90;;
37431;SDS011;23292;51.300;6.252;2022-12-13T04:40:41;69.30;;;26.30;;
37431;SDS011;23292;51.300;6.252;2022-12-13T04:43:08;60.60;;;25.42;;
37431;SDS011;23292;51.300;6.252;2022-12-13T04:45:34;63.10;;;25.98;;
37431;SDS011;23292;51.300;6.252;2022-12-13T04:48:01;73.00;;;26.85;;
37431;SDS011;23292;51.300;6.252;2022-12-13T04:50:30;66.38;;;25.83;;
37431;SDS011;23292;51.300;6.252;2022-12-13T04:52:57;75.07;;;28.13;;
37431;SDS011;23292;51.300;6.252;2022-12-13T04:55:24;64.63;;;26.45;;
37431;SDS011;23292;51.300;6.252;2022-12-13T04:57:51;68.63;;;26.80;;
37431;SDS011;23292;51.300;6.252;2022-12-13T05:00:17;71.50;;;26.85;;
37431;SDS011;23292;51.300;6.252;2022-12-13T05:02:46;71.43;;;27.15;;
37431;SDS011;23292;51.300;6.252;2022-12-13T05:05:13;75.55;;;29.77;;
37431;SDS011;23292;51.300;6.252;2022-12-13T05:07:40;82.43;;;28.48;;
37431;SDS011;23292;51.300;6.252;2022-12-13T05:10:08;74.70;;;27.90;;
37431;SDS011;23292;51.300;6.252;2022-12-13T05:12:36;66.57;;;25.52;;
37431;SDS011;23292;51.300;6.252;2022-12-13T05:15:03;80.45;;;27.90;;
37431;SDS011;23292;51.300;6.252;2022-12-13T05:17:30;79.97;;;27.73;;
37431;SDS011;23292;51.300;6.252;2022-12-13T05:19:57;65.80;;;27.15;;
37431;SDS011;23292;51.300;6.252;2022-12-13T05:22:24;76.32;;;28.55;;
37431;SDS011;23292;51.300;6.252;2022-12-13T05:24:51;71.03;;;29.30;;
37431;SDS011;23292;51.300;6.252;2022-12-13T05:27:18;74.90;;;28.15;;
37431;SDS011;23292;51.300;6.252;2022-12-13T05:29:55;72.05;;;26.27;;
37431;SDS011;23292;51.300;6.252;2022-12-13T05:32:33;75.70;;;28.15;;
37431;SDS011;23292;51.300;6.252;2022-12-13T05:35:16;72.65;;;27.40;;
37431;SDS011;23292;51.300;6.252;2022-12-13T05:37:51;74.97;;;28.45;;
37431;SDS011;23292;51.300;6.252;2022-12-13T05:42:51;73.90;;;27.50;;
37431;SDS011;23292;51.300;6.252;2022-12-13T05:45:28;76.35;;;27.83;;
37431;SDS011;23292;51.300;6.252;2022-12-13T05:47:55;76.30;;;27.77;;
37431;SDS011;23292;51.300;6.252;2022-12-13T05:50:22;79.35;;;27.88;;
37431;SDS011;23292;51.300;6.252;2022-12-13T05:52:49;65.13;;;26.25;;
37431;SDS011;23292;51.300;6.252;2022-12-13T05:55:16;66.85;;;26.90;;
37431;SDS011;23292;51.300;6.252;2022-12-13T05:57:43;72.40;;;28.02;;
37431;SDS011;23292;51.300;6.252;2022-12-13T06:00:16;72.90;;;27.70;;
37431;SDS011;23292;51.300;6.252;2022-12-13T06:02:55;73.18;;;26.67;;
37431;SDS011;23292;51.300;6.252;2022-12-13T06:05:27;81.50;;;29.02;;
37431;SDS011;23292;51.300;6.252;2022-12-13T06:07:54;68.15;;;27.25;;
37431;SDS011;23292;51.300;6.252;2022-12-13T06:10:23;72.07;;;27.73;;
37431;SDS011;23292;51.300;6.252;2022-12-13T06:12:59;68.90;;;26.75;;
37431;SDS011;23292;51.300;6.252;2022-12-13T06:15:30;72.50;;;27.88;;
37431;SDS011;23292;51.300;6.252;2022-12-13T06:18:00;68.45;;;27.33;;
37431;SDS011;23292;51.300;6.252;2022-12-13T06:20:27;74.22;;;29.58;;
37431;SDS011;23292;51.300;6.252;2022-12-13T06:22:54;74.05;;;28.23;;
37431;SDS011;23292;51.300;6.252;2022-12-13T06:25:20;68.50;;;26.88;;
37431;SDS011;23292;51.300;6.252;2022-12-13T06:27:57;65.00;;;28.23;;
37431;SDS011;23292;51.300;6.252;2022-12-13T06:30:27;77.90;;;29.05;;
37431;SDS011;23292;51.300;6.252;2022-12-13T06:32:54;67.53;;;26.38;;
37431;SDS011;23292;51.300;6.252;2022-12-13T06:35:21;67.75;;;26.42;;
37431;SDS011;23292;51.300;6.252;2022-12-13T06:37:55;69.65;;;26.67;;
37431;SDS011;23292;51.300;6.252;2022-12-13T06:40:30;67.47;;;27.33;;
37431;SDS011;23292;51.300;6.252;2022-12-13T06:42:57;67.07;;;27.38;;
37431;SDS011;23292;51.300;6.252;2022-12-13T06:45:24;80.68;;;29.15;;
37431;SDS011;23292;51.300;6.252;2022-12-13T06:47:51;70.35;;;27.27;;
37431;SDS011;23292;51.300;6.252;2022-12-13T06:50:18;81.22;;;27.77;;
37431;SDS011;23292;51.300;6.252;2022-12-13T06:52:45;68.68;;;26.55;;
37431;SDS011;23292;51.300;6.252;2022-12-13T06:55:12;72.85;;;26.88;;
37431;SDS011;23292;51.300;6.252;2022-12-13T06:57:39;76.38;;;27.38;;
37431;SDS011;23292;51.300;6.252;2022-12-13T07:00:07;68.40;;;26.88;;
37431;SDS011;23292;51.300;6.252;2022-12-13T07:02:34;69.28;;;27.35;;
37431;SDS011;23292;51.300;6.252;2022-12-13T07:05:03;59.90;;;24.65;;
37431;SDS011;23292;51.300;6.252;2022-12-13T07:07:30;64.85;;;27.05;;
37431;SDS011;23292;51.300;6.252;2022-12-13T07:09:57;72.75;;;28.63;;
37431;SDS011;23292;51.300;6.252;2022-12-13T07:12:24;72.60;;;27.00;;
37431;SDS011;23292;51.300;6.252;2022-12-13T07:14:51;72.30;;;27.02;;
37431;SDS011;23292;51.300;6.252;2022-12-13T07:17:17;67.05;;;27.35;;
37431;SDS011;23292;51.300;6.252;2022-12-13T07:19:59;69.35;;;26.45;;
37431;SDS011;23292;51.300;6.252;2022-12-13T07:22:34;67.65;;;26.17;;
37431;SDS011;23292;51.300;6.252;2022-12-13T07:25:08;83.45;;;28.30;;
37431;SDS011;23292;51.300;6.252;2022-12-13T07:28:12;73.82;;;28.35;;
37431;SDS011;23292;51.300;6.252;2022-12-13T07:30:39;70.10;;;27.13;;
37431;SDS011;23292;51.300;6.252;2022-12-13T07:33:07;78.72;;;27.83;;
37431;SDS011;23292;51.300;6.252;2022-12-13T07:35:34;75.32;;;29.35;;
37431;SDS011;23292;51.300;6.252;2022-12-13T07:38:07;72.03;;;27.63;;
37431;SDS011;23292;51.300;6.252;2022-12-13T07:40:36;73.93;;;28.75;;
37431;SDS011;23292;51.300;6.252;2022-12-13T07:43:04;72.70;;;27.90;;
37431;SDS011;23292;51.300;6.252;2022-12-13T07:45:31;76.22;;;29.90;;
37431;SDS011;23292;51.300;6.252;2022-12-13T07:48:02;74.30;;;27.75;;
37431;SDS011;23292;51.300;6.252;2022-12-13T07:50:29;69.45;;;28.00;;
37431;SDS011;23292;51.300;6.252;2022-12-13T07:53:03;76.38;;;29.45;;
37431;SDS011;23292;51.300;6.252;2022-12-13T07:55:33;75.82;;;29.73;;
37431;SDS011;23292;51.300;6.252;2022-12-13T07:58:11;70.13;;;29.13;;
37431;SDS011;23292;51.300;6.252;2022-12-13T08:00:40;73.97;;;29.80;;
37431;SDS011;23292;51.300;6.252;2022-12-13T08:03:12;72.43;;;29.38;;
37431;SDS011;23292;51.300;6.252;2022-12-13T08:05:57;83.15;;;30.20;;
37431;SDS011;23292;51.300;6.252;2022-12-13T08:08:34;82.43;;;30.35;;
37431;SDS011;23292;51.300;6.252;2022-12-13T08:11:03;72.03;;;28.27;;
37431;SDS011;23292;51.300;6.252;2022-12-13T08:13:32;73.15;;;28.27;;
37431;SDS011;23292;51.300;6.252;2022-12-13T08:16:00;81.68;;;30.98;;
37431;SDS011;23292;51.300;6.252;2022-12-13T08:18:28;75.72;;;30.13;;
37431;SDS011;23292;51.300;6.252;2022-12-13T08:20:59;84.95;;;30.25;;
37431;SDS011;23292;51.300;6.252;2022-12-13T08:25:55;81.85;;;29.75;;
37431;SDS011;23292;51.300;6.252;2022-12-13T08:28:21;81.18;;;30.48;;
37431;SDS011;23292;51.300;6.252;2022-12-13T08:30:49;81.88;;;30.08;;
37431;SDS011;23292;51.300;6.252;2022-12-13T08:33:18;86.35;;;29.50;;
37431;SDS011;23292;51.300;6.252;2022-12-13T08:35:46;81.85;;;30.67;;
37431;SDS011;23292;51.300;6.252;2022-12-13T08:38:13;80.03;;;30.83;;
37431;SDS011;23292;51.300;6.252;2022-12-13T08:40:49;82.95;;;30.58;;
37431;SDS011;23292;51.300;6.252;2022-12-13T08:43:16;78.40;;;29.85;;
37431;SDS011;23292;51.300;6.252;2022-12-13T08:45:50;76.82;;;30.13;;
37431;SDS011;23292;51.300;6.252;2022-12-13T08:48:16;73.38;;;28.52;;
37431;SDS011;23292;51.300;6.252;2022-12-13T08:50:44;75.60;;;28.40;;
37431;SDS011;23292;51.300;6.252;2022-12-13T08:53:10;70.97;;;28.23;;
37431;SDS011;23292;51.300;6.252;2022-12-13T08:55:58;69.68;;;28.00;;
37431;SDS011;23292;51.300;6.252;2022-12-13T08:58:29;69.65;;;28.00;;
37431;SDS011;23292;51.300;6.252;2022-12-13T09:00:56;77.72;;;28.98;;
37431;SDS011;23292;51.300;6.252;2022-12-13T09:03:23;62.03;;;26.60;;
37431;SDS011;23292;51.300;6.252;2022-12-13T09:05:50;69.88;;;27.42;;
37431;SDS011;23292;51.300;6.252;2022-12-13T09:08:17;71.28;;;28.52;;
37431;SDS011;23292;51.300;6.252;2022-12-13T09:11:00;68.93;;;27.35;;
37431;SDS011;23292;51.300;6.252;2022-12-13T09:13:47;66.95;;;27.23;;
37431;SDS011;23292;51.300;6.252;2022-12-13T09:16:15;77.07;;;28.83;;
37431;SDS011;23292;51.300;6.252;2022-12-13T09:18:49;67.53;;;27.75;;
37431;SDS011;23292;51.300;6.252;2022-12-13T09:21:20;73.80;;;27.40;;
37431;SDS011;23292;51.300;6.252;2022-12-13T09:23:57;63.38;;;26.45;;
37431;SDS011;23292;51.300;6.252;2022-12-13T09:26:27;75.53;;;27.20;;
37431;SDS011;23292;51.300;6.252;2022-12-13T09:29:03;69.22;;;25.30;;
37431;SDS011;23292;51.300;6.252;2022-12-13T09:31:36;64.30;;;26.50;;
37431;SDS011;23292;51.300;6.252;2022-12-13T09:34:05;65.30;;;27.90;;
37431;SDS011;23292;51.300;6.252;2022-12-13T09:36:32;67.03;;;26.05;;
37431;SDS011;23292;51.300;6.252;2022-12-13T09:38:59;65.47;;;25.20;;
37431;SDS011;23292;51.300;6.252;2022-12-13T09:41:30;61.10;;;24.90;;
37431;SDS011;23292;51.300;6.252;2022-12-13T09:44:18;66.90;;;26.63;;
37431;SDS011;23292;51.300;6.252;2022-12-13T09:47:11;58.63;;;23.63;;
37431;SDS011;23292;51.300;6.252;2022-12-13T09:52:17;55.92;;;24.55;;
37431;SDS011;23292;51.300;6.252;2022-12-13T09:54:47;61.42;;;25.85;;
37431;SDS011;23292;51.300;6.252;2022-12-13T09:57:19;62.43;;;25.23;;
37431;SDS011;23292;51.300;6.252;2022-12-13T09:59:57;57.85;;;25.00;;
37431;SDS011;23292;51.300;6.252;2022-12-13T10:02:36;57.08;;;22.98;;
37431;SDS011;23292;51.300;6.252;2022-12-13T10:05:16;60.55;;;24.73;;
37431;SDS011;23292;51.300;6.252;2022-12-13T10:10:40;55.67;;;23.13;;
37431;SDS011;23292;51.300;6.252;2022-12-13T10:13:11;60.47;;;24.48;;
37431;SDS011;23292;51.300;6.252;2022-12-13T10:15:52;45.97;;;17.87;;
37431;SDS011;23292;51.300;6.252;2022-12-13T10:18:43;49.75;;;22.00;;
37431;SDS011;23292;51.300;6.252;2022-12-13T10:21:19;44.72;;;20.00;;
37431;SDS011;23292;51.300;6.252;2022-12-13T10:23:53;49.75;;;21.80;;
37431;SDS011;23292;51.300;6.252;2022-12-13T10:26:40;52.42;;;21.88;;
37431;SDS011;23292;51.300;6.252;2022-12-13T10:29:07;55.70;;;22.88;;
37431;SDS011;23292;51.300;6.252;2022-12-13T10:31:38;48.97;;;20.98;;
37431;SDS011;23292;51.300;6.252;2022-12-13T10:34:15;45.03;;;20.65;;
37431;SDS011;23292;51.300;6.252;2022-12-13T10:36:50;42.25;;;19.80;;
37431;SDS011;23292;51.300;6.252;2022-12-13T10:39:18;43.15;;;19.75;;
37431;SDS011;23292;51.300;6.252;2022-12-13T10:42:11;45.83;;;19.52;;
37431;SDS011;23292;51.300;6.252;2022-12-13T10:44:48;38.95;;;18.30;;
37431;SDS011;23292;51.300;6.252;2022-12-13T10:47:35;45.40;;;19.83;;
37431;SDS011;23292;51.300;6.252;2022-12-13T10:50:02;43.38;;;18.75;;
37431;SDS011;23292;51.300;6.252;2022-12-13T10:52:30;43.95;;;20.25;;
37431;SDS011;23292;51.300;6.252;2022-12-13T10:55:25;41.97;;;18.00;;
37431;SDS011;23292;51.300;6.252;2022-12-13T10:57:56;45.70;;;18.70;;
37431;SDS011;23292;51.300;6.252;2022-12-13T11:03:13;40.75;;;17.30;;
37431;SDS011;23292;51.300;6.252;2022-12-13T11:06:01;37.90;;;16.92;;
37431;SDS011;23292;51.300;6.252;2022-12-13T11:08:43;48.33;;;18.38;;
37431;SDS011;23292;51.300;6.252;2022-12-13T11:11:09;44.25;;;16.70;;
37431;SDS011;23292;51.300;6.252;2022-12-13T11:13:44;43.05;;;18.48;;
37431;SDS011;23292;51.300;6.252;2022-12-13T11:16:35;36.83;;;16.42;;
37431;SDS011;23292;51.300;6.252;2022-12-13T11:19:20;43.40;;;18.63;;
37431;SDS011;23292;51.300;6.252;2022-12-13T11:21:50;41.38;;;18.30;;
37431;SDS011;23292;51.300;6.252;2022-12-13T11:24:37;40.72;;;18.08;;
37431;SDS011;23292;51.300;6.252;2022-12-13T11:27:19;43.42;;;17.88;;
37431;SDS011;23292;51.300;6.252;2022-12-13T11:30:11;43.72;;;18.00;;
37431;SDS011;23292;51.300;6.252;2022-12-13T11:41:07;39.25;;;18.00;;
37431;SDS011;23292;51.300;6.252;2022-12-13T11:43:59;36.58;;;16.80;;
37431;SDS011;23292;51.300;6.252;2022-12-13T11:46:37;38.65;;;17.38;;
37431;SDS011;23292;51.300;6.252;2022-12-13T11:49:11;35.08;;;16.25;;
37431;SDS011;23292;51.300;6.252;2022-12-13T11:51:46;41.25;;;17.40;;
37431;SDS011;23292;51.300;6.252;2022-12-13T12:05:38;40.78;;;18.13;;
37431;SDS011;23292;51.300;6.252;2022-12-13T12:08:11;38.83;;;17.23;;
37431;SDS011;23292;51.300;6.252;2022-12-13T12:11:18;38.47;;;17.17;;
37431;SDS011;23292;51.300;6.252;2022-12-13T12:13:54;37.47;;;17.20;;
37431;SDS011;23292;51.300;6.252;2022-12-13T12:16:32;35.05;;;17.40;;
37431;SDS011;23292;51.300;6.252;2022-12-13T12:19:15;38.00;;;17.83;;
37431;SDS011;23292;51.300;6.252;2022-12-13T12:21:51;42.67;;;17.17;;
37431;SDS011;23292;51.300;6.252;2022-12-13T12:33:23;40.38;;;17.77;;
37431;SDS011;23292;51.300;6.252;2022-12-13T12:41:45;36.67;;;17.92;;
37431;SDS011;23292;51.300;6.252;2022-12-13T12:44:58;39.85;;;17.02;;
37431;SDS011;23292;51.300;6.252;2022-12-13T12:47:46;38.78;;;17.23;;
37431;SDS011;23292;51.300;6.252;2022-12-13T12:50:52;41.97;;;16.92;;
37431;SDS011;23292;51.300;6.252;2022-12-13T12:53:53;33.85;;;16.00;;
37431;SDS011;23292;51.300;6.252;2022-12-13T12:56:40;38.65;;;17.23;;
37431;SDS011;23292;51.300;6.252;2022-12-13T13:05:21;38.28;;;16.65;;
37431;SDS011;23292;51.300;6.252;2022-12-13T13:07:58;32.88;;;16.25;;
37431;SDS011;23292;51.300;6.252;2022-12-13T13:10:30;47.63;;;18.25;;
37431;SDS011;23292;51.300;6.252;2022-12-13T13:12:57;37.83;;;16.50;;
37431;SDS011;23292;51.300;6.252;2022-12-13T13:18:07;37.20;;;16.23;;
37431;SDS011;23292;51.300;6.252;2022-12-13T13:26:30;39.05;;;15.73;;
37431;SDS011;23292;51.300;6.252;2022-12-13T13:34:40;38.38;;;15.45;;
37431;SDS011;23292;51.300;6.252;2022-12-13T13:42:21;38.97;;;16.30;;
37431;SDS011;23292;51.300;6.252;2022-12-13T13:48:03;33.58;;;14.77;;
37431;SDS011;23292;51.300;6.252;2022-12-13T14:08:27;37.60;;;15.63;;
37431;SDS011;23292;51.300;6.252;2022-12-13T14:11:18;33.45;;;15.38;;
37431;SDS011;23292;51.300;6.252;2022-12-13T14:16:58;31.02;;;13.52;;
37431;SDS011;23292;51.300;6.252;2022-12-13T14:31:00;35.65;;;15.43;;
37431;SDS011;23292;51.300;6.252;2022-12-13T14:33:27;32.58;;;14.30;;
37431;SDS011;23292;51.300;6.252;2022-12-13T14:35:58;34.08;;;14.18;;
37431;SDS011;23292;51.300;6.252;2022-12-13T14:38:28;32.75;;;14.25;;
37431;SDS011;23292;51.300;6.252;2022-12-13T14:40:57;36.10;;;13.55;;
37431;SDS011;23292;51.300;6.252;2022-12-13T14:43:27;35.13;;;13.85;;
37431;SDS011;23292;51.300;6.252;2022-12-13T14:45:56;34.08;;;14.52;;
37431;SDS011;23292;51.300;6.252;2022-12-13T14:48:25;32.67;;;14.05;;
37431;SDS011;23292;51.300;6.252;2022-12-13T14:50:54;29.42;;;13.30;;
37431;SDS011;23292;51.300;6.252;2022-12-13T14:53:23;33.20;;;14.93;;
37431;SDS011;23292;51.300;6.252;2022-12-13T15:01:32;37.25;;;14.63;;
37431;SDS011;23292;51.300;6.252;2022-12-13T15:06:42;30.80;;;13.82;;
37431;SDS011;23292;51.300;6.252;2022-12-13T15:11:41;30.98;;;14.23;;
37431;SDS011;23292;51.300;6.252;2022-12-13T15:14:16;30.75;;;14.82;;
37431;SDS011;23292;51.300;6.252;2022-12-13T15:16:46;33.00;;;13.93;;
37431;SDS011;23292;51.300;6.252;2022-12-13T15:22:03;29.92;;;13.75;;
37431;SDS011;23292;51.300;6.252;2022-12-13T15:24:47;31.42;;;14.00;;
37431;SDS011;23292;51.300;6.252;2022-12-13T15:27:23;30.33;;;13.75;;
37431;SDS011;23292;51.300;6.252;2022-12-13T15:29:51;30.42;;;12.75;;
37431;SDS011;23292;51.300;6.252;2022-12-13T15:32:19;34.10;;;14.30;;
37431;SDS011;23292;51.300;6.252;2022-12-13T15:34:48;30.80;;;13.95;;
37431;SDS011;23292;51.300;6.252;2022-12-13T15:37:17;37.88;;;15.77;;
37431;SDS011;23292;51.300;6.252;2022-12-13T15:39:56;31.52;;;14.48;;
37431;SDS011;23292;51.300;6.252;2022-12-13T15:42:30;40.38;;;14.63;;
37431;SDS011;23292;51.300;6.252;2022-12-13T15:45:03;39.78;;;16.58;;
37431;SDS011;23292;51.300;6.252;2022-12-13T15:47:32;29.50;;;13.95;;
37431;SDS011;23292;51.300;6.252;2022-12-13T15:50:03;29.73;;;13.48;;
37431;SDS011;23292;51.300;6.252;2022-12-13T15:52:33;37.30;;;14.75;;
37431;SDS011;23292;51.300;6.252;2022-12-13T16:03:01;35.58;;;16.27;;
37431;SDS011;23292;51.300;6.252;2022-12-13T16:05:39;33.22;;;14.85;;
37431;SDS011;23292;51.300;6.252;2022-12-13T16:10:57;37.03;;;15.60;;
37431;SDS011;23292;51.300;6.252;2022-12-13T16:13:28;33.30;;;16.05;;
37431;SDS011;23292;51.300;6.252;2022-12-13T16:16:01;35.45;;;14.57;;
37431;SDS011;23292;51.300;6.252;2022-12-13T16:18:54;32.38;;;14.27;;
37431;SDS011;23292;51.300;6.252;2022-12-13T16:21:26;31.48;;;14.15;;
37431;SDS011;23292;51.300;6.252;2022-12-13T16:23:53;33.28;;;14.80;;
37431;SDS011;23292;51.300;6.252;2022-12-13T16:26:21;32.70;;;13.77;;
37431;SDS011;23292;51.300;6.252;2022-12-13T16:28:51;32.40;;;13.95;;
37431;SDS011;23292;51.300;6.252;2022-12-13T16:31:22;35.53;;;14.55;;
37431;SDS011;23292;51.300;6.252;2022-12-13T16:33:50;33.72;;;14.07;;
37431;SDS011;23292;51.300;6.252;2022-12-13T16:36:17;31.20;;;13.88;;
37431;SDS011;23292;51.300;6.252;2022-12-13T16:38:45;34.55;;;13.70;;
37431;SDS011;23292;51.300;6.252;2022-12-13T16:41:11;27.77;;;12.60;;
37431;SDS011;23292;51.300;6.252;2022-12-13T16:43:45;31.23;;;13.43;;
37431;SDS011;23292;51.300;6.252;2022-12-13T16:46:22;33.25;;;14.32;;
37431;SDS011;23292;51.300;6.252;2022-12-13T16:49:17;32.17;;;13.55;;
37431;SDS011;23292;51.300;6.252;2022-12-13T16:51:45;32.15;;;13.43;;
37431;SDS011;23292;51.300;6.252;2022-12-13T16:54:14;39.05;;;16.55;;
37431;SDS011;23292;51.300;6.252;2022-12-13T16:56:42;34.70;;;14.57;;
37431;SDS011;23292;51.300;6.252;2022-12-13T16:59:12;30.42;;;13.05;;
37431;SDS011;23292;51.300;6.252;2022-12-13T17:01:41;33.72;;;14.63;;
37431;SDS011;23292;51.300;6.252;2022-12-13T17:04:12;35.28;;;14.52;;
37431;SDS011;23292;51.300;6.252;2022-12-13T17:06:46;31.27;;;12.55;;
37431;SDS011;23292;51.300;6.252;2022-12-13T17:09:15;29.27;;;13.88;;
37431;SDS011;23292;51.300;6.252;2022-12-13T17:11:43;31.48;;;13.40;;
37431;SDS011;23292;51.300;6.252;2022-12-13T17:14:10;30.13;;;13.05;;
37431;SDS011;23292;51.300;6.252;2022-12-13T17:16:37;31.25;;;12.95;;
37431;SDS011;23292;51.300;6.252;2022-12-13T17:19:03;31.13;;;12.95;;
37431;SDS011;23292;51.300;6.252;2022-12-13T17:21:30;33.70;;;14.32;;
37431;SDS011;23292;51.300;6.252;2022-12-13T17:23:58;33.08;;;13.00;;
37431;SDS011;23292;51.300;6.252;2022-12-13T17:26:26;36.25;;;13.77;;
37431;SDS011;23292;51.300;6.252;2022-12-13T17:28:54;31.65;;;13.93;;
37431;SDS011;23292;51.300;6.252;2022-12-13T17:31:21;29.13;;;12.75;;
37431;SDS011;23292;51.300;6.252;2022-12-13T17:33:48;35.47;;;17.15;;
37431;SDS011;23292;51.300;6.252;2022-12-13T17:36:15;41.28;;;19.67;;
37431;SDS011;23292;51.300;6.252;2022-12-13T17:38:45;35.45;;;15.32;;